createdAt,value
2023-03-10T00:01:41.767Z,3.03
2023-03-10T00:04:09.128Z,3.43
2023-03-10T00:06:36.587Z,3.07
2023-03-10T00:09:04.575Z,4.13
2023-03-10T00:11:32.468Z,3.73
2023-03-10T00:13:59.856Z,2.23
2023-03-10T00:16:29.782Z,1.23
2023-03-10T00:18:57.573Z,1.50
2023-03-10T00:21:27.913Z,0.90
2023-03-10T00:23:55.825Z,1.40
2023-03-10T00:26:25.015Z,0.80
2023-03-10T00:28:52.897Z,1.33
2023-03-10T00:31:27.068Z,0.60
2023-03-10T00:33:56.229Z,0.90
2023-03-10T00:36:25.917Z,0.63
2023-03-10T00:38:56.403Z,1.10
2023-03-10T00:41:26.099Z,0.70
2023-03-10T00:43:53.948Z,1.03
2023-03-10T00:46:21.798Z,0.70
2023-03-10T00:48:49.150Z,0.93
2023-03-10T00:51:16.692Z,0.90
2023-03-10T00:53:44.722Z,1.23
2023-03-10T00:56:21.377Z,2.80
2023-03-10T00:58:52.079Z,0.63
2023-03-10T01:01:25.147Z,0.70
2023-03-10T01:03:54.425Z,0.80
2023-03-10T01:06:22.980Z,0.80
2023-03-10T01:08:50.399Z,0.80
2023-03-10T01:11:19.886Z,0.80
2023-03-10T01:13:47.435Z,0.67
2023-03-10T01:16:14.806Z,1.10
2023-03-10T01:18:43.541Z,3.03
2023-03-10T01:21:19.887Z,2.73
2023-03-10T01:23:47.209Z,0.80
2023-03-10T01:26:16.480Z,1.40
2023-03-10T01:28:45.561Z,1.10
2023-03-10T01:31:13.223Z,2.30
2023-03-10T01:33:41.540Z,3.27
2023-03-10T01:36:17.357Z,3.37
2023-03-10T01:38:45.245Z,1.10
2023-03-10T01:41:13.387Z,2.20
2023-03-10T01:43:59.560Z,8.30
2023-03-10T01:46:32.869Z,1.17
2023-03-10T01:49:13.394Z,2.63
2023-03-10T01:51:42.972Z,2.83
2023-03-10T01:54:13.849Z,3.03
2023-03-10T01:56:42.052Z,3.40
2023-03-10T01:59:10.149Z,3.33
2023-03-10T02:01:37.836Z,3.23
2023-03-10T02:04:23.732Z,3.70
2023-03-10T02:06:52.157Z,0.70
2023-03-10T02:09:21.024Z,0.80
2023-03-10T02:11:48.836Z,0.60
2023-03-10T02:14:16.298Z,0.67
2023-03-10T02:16:43.937Z,1.37
2023-03-10T02:19:19.429Z,3.50
2023-03-10T02:22:04.378Z,0.80
2023-03-10T02:25:21.244Z,3.40
2023-03-10T02:27:48.559Z,0.80
2023-03-10T02:30:21.881Z,0.80
2023-03-10T02:32:52.911Z,0.87
2023-03-10T02:35:20.581Z,0.80
2023-03-10T02:37:48.734Z,0.77
2023-03-10T02:40:35.157Z,0.80
2023-03-10T02:43:06.528Z,3.93
2023-03-10T02:45:36.845Z,3.43
2023-03-10T02:48:04.352Z,4.60
2023-03-10T02:50:36.051Z,3.27
2023-03-10T02:53:11.762Z,3.27
2023-03-10T02:55:39.124Z,3.33
2023-03-10T02:58:06.468Z,3.23
2023-03-10T03:00:38.635Z,4.30
2023-03-10T03:03:06.714Z,3.17
2023-03-10T03:05:34.590Z,3.03
2023-03-10T03:08:02.117Z,4.53
2023-03-10T03:10:29.497Z,2.73
2023-03-10T03:12:56.960Z,1.43
2023-03-10T03:15:24.668Z,0.63
2023-03-10T03:17:52.175Z,0.70
2023-03-10T03:20:19.669Z,1.33
2023-03-10T03:22:47.198Z,0.83
2023-03-10T03:25:16.918Z,1.40
2023-03-10T03:27:45.036Z,1.53
2023-03-10T03:30:22.015Z,2.60
2023-03-10T03:32:50.188Z,1.03
2023-03-10T03:35:20.766Z,0.73
2023-03-10T03:37:48.446Z,0.90
2023-03-10T03:40:15.856Z,1.03
2023-03-10T03:42:45.359Z,2.30
2023-03-10T03:45:14.495Z,2.20
2023-03-10T03:47:42.036Z,3.00
2023-03-10T03:50:11.462Z,3.23
2023-03-10T03:52:38.759Z,3.00
2023-03-10T03:55:07.178Z,2.97
2023-03-10T03:57:34.359Z,4.40
2023-03-10T04:00:01.862Z,3.53
2023-03-10T04:02:29.330Z,2.57
2023-03-10T04:04:56.617Z,1.23
2023-03-10T04:07:24.178Z,0.80
2023-03-10T04:09:51.713Z,0.80
2023-03-10T04:12:19.155Z,0.90
2023-03-10T04:14:46.416Z,0.90
2023-03-10T04:17:13.801Z,1.67
2023-03-10T04:19:41.084Z,3.57
2023-03-10T04:22:08.550Z,3.50
2023-03-10T04:24:39.638Z,3.67
2023-03-10T04:27:09.873Z,3.23
2023-03-10T04:29:37.737Z,3.27
2023-03-10T04:32:06.044Z,4.10
2023-03-10T04:34:33.610Z,3.00
2023-03-10T04:37:01.000Z,2.30
2023-03-10T04:39:28.273Z,2.07
2023-03-10T04:41:55.731Z,1.07
2023-03-10T04:44:30.812Z,0.70
2023-03-10T04:46:58.603Z,2.20
2023-03-10T04:49:26.165Z,1.33
2023-03-10T04:51:54.158Z,0.80
2023-03-10T04:54:21.720Z,0.73
2023-03-10T04:56:49.199Z,0.60
2023-03-10T04:59:16.369Z,0.70
2023-03-10T05:01:43.810Z,1.67
2023-03-10T05:04:11.439Z,3.37
2023-03-10T05:06:38.626Z,3.50
2023-03-10T05:09:06.143Z,3.93
2023-03-10T05:11:33.536Z,3.60
2023-03-10T05:14:00.955Z,1.87
2023-03-10T05:16:28.468Z,1.77
2023-03-10T05:18:55.893Z,1.40
2023-03-10T05:21:23.785Z,0.87
2023-03-10T05:23:51.210Z,0.70
2023-03-10T05:26:18.898Z,0.80
2023-03-10T05:28:46.204Z,0.80
2023-03-10T05:31:16.629Z,1.90
2023-03-10T05:33:44.374Z,1.57
2023-03-10T05:36:13.317Z,3.43
2023-03-10T05:38:40.862Z,3.27
2023-03-10T05:41:09.738Z,3.27
2023-03-10T05:43:38.384Z,3.43
2023-03-10T05:46:06.386Z,4.77
2023-03-10T05:48:33.721Z,2.80
2023-03-10T05:51:03.231Z,2.80
2023-03-10T05:53:31.814Z,2.30
2023-03-10T05:55:59.904Z,2.50
2023-03-10T05:58:27.779Z,1.20
2023-03-10T06:00:55.747Z,1.03
2023-03-10T06:03:24.188Z,0.70
2023-03-10T06:05:51.670Z,0.90
2023-03-10T06:08:19.021Z,0.87
2023-03-10T06:10:46.221Z,0.90
2023-03-10T06:13:13.534Z,2.50
2023-03-10T06:15:40.866Z,3.43
2023-03-10T06:18:08.889Z,3.93
2023-03-10T06:20:38.938Z,3.60
2023-03-10T06:23:06.536Z,4.23
2023-03-10T06:25:33.884Z,4.30
2023-03-10T06:28:01.100Z,2.50
2023-03-10T06:30:28.476Z,2.20
2023-03-10T06:32:55.909Z,1.10
2023-03-10T06:35:23.732Z,0.90
2023-03-10T06:37:50.989Z,0.73
2023-03-10T06:40:18.598Z,0.80
2023-03-10T06:42:46.211Z,0.80
2023-03-10T06:45:15.868Z,2.07
2023-03-10T06:47:44.341Z,2.33
2023-03-10T06:50:12.831Z,3.53
2023-03-10T06:52:40.336Z,3.53
2023-03-10T06:55:07.943Z,3.70
2023-03-10T06:57:35.368Z,11.70
2023-03-10T07:00:02.974Z,4.07
2023-03-10T07:02:30.235Z,2.77
2023-03-10T07:04:57.579Z,1.40
2023-03-10T07:07:25.260Z,0.90
2023-03-10T07:09:52.935Z,0.90
2023-03-10T07:12:20.211Z,0.83
2023-03-10T07:14:47.393Z,0.80
2023-03-10T07:17:14.802Z,1.67
2023-03-10T07:19:42.067Z,3.43
2023-03-10T07:22:11.365Z,3.23
2023-03-10T07:24:38.762Z,3.40
2023-03-10T07:27:06.554Z,4.00
2023-03-10T07:29:34.028Z,3.57
2023-03-10T07:32:01.698Z,2.97
2023-03-10T07:34:28.930Z,2.70
2023-03-10T07:36:56.285Z,1.23
2023-03-10T07:39:23.861Z,0.70
2023-03-10T07:41:51.343Z,0.60
2023-03-10T07:44:18.514Z,0.80
2023-03-10T07:46:45.686Z,0.60
2023-03-10T07:49:12.873Z,2.40
2023-03-10T07:51:40.221Z,2.87
2023-03-10T07:54:07.578Z,3.50
2023-03-10T07:56:34.891Z,3.63
2023-03-10T07:59:02.270Z,3.53
2023-03-10T08:01:29.755Z,2.90
2023-03-10T08:03:58.334Z,1.27
2023-03-10T08:06:27.758Z,1.27
2023-03-10T08:08:55.772Z,0.73
2023-03-10T08:11:24.418Z,0.80
2023-03-10T08:13:52.456Z,0.80
2023-03-10T08:16:21.313Z,0.80
2023-03-10T08:18:51.676Z,0.80
2023-03-10T08:21:18.938Z,1.00
2023-03-10T08:23:46.302Z,0.90
2023-03-10T08:26:15.853Z,2.30
2023-03-10T08:28:43.813Z,2.10
2023-03-10T08:31:13.649Z,3.33
2023-03-10T08:33:42.967Z,2.60
2023-03-10T08:36:19.049Z,3.50
2023-03-10T08:38:46.884Z,1.03
2023-03-10T08:41:26.301Z,2.37
2023-03-10T08:43:55.330Z,0.90
2023-03-10T08:46:24.994Z,1.00
2023-03-10T08:48:54.439Z,1.00
2023-03-10T08:51:21.897Z,1.27
2023-03-10T08:53:50.792Z,0.93
2023-03-10T08:56:20.854Z,1.20
2023-03-10T08:58:48.286Z,1.43
2023-03-10T09:01:16.504Z,1.23
2023-03-10T09:03:45.502Z,2.13
2023-03-10T09:06:13.992Z,3.13
2023-03-10T09:08:41.531Z,4.40
2023-03-10T09:11:10.086Z,4.53
2023-03-10T09:13:37.350Z,4.03
2023-03-10T09:16:04.965Z,4.70
2023-03-10T09:18:32.437Z,5.07
2023-03-10T09:20:59.616Z,3.67
2023-03-10T09:23:26.819Z,1.47
2023-03-10T09:25:54.376Z,0.80
2023-03-10T09:28:22.341Z,1.20
2023-03-10T09:30:51.539Z,0.93
2023-03-10T09:33:20.751Z,1.17
2023-03-10T09:36:05.019Z,0.90
2023-03-10T09:38:32.849Z,4.57
2023-03-10T09:41:26.914Z,3.17
2023-03-10T09:44:04.222Z,0.90
2023-03-10T09:46:53.337Z,3.33
2023-03-10T09:49:29.301Z,1.13
2023-03-10T09:51:56.697Z,1.57
2023-03-10T09:54:41.132Z,1.00
2023-03-10T09:57:19.362Z,3.60
2023-03-10T09:59:48.227Z,0.90
2023-03-10T10:02:21.876Z,1.17
2023-03-10T10:04:54.442Z,1.00
2023-03-10T10:07:23.867Z,1.07
2023-03-10T10:10:04.684Z,0.90
2023-03-10T10:12:32.894Z,3.10
2023-03-10T10:15:23.170Z,2.60
2023-03-10T10:18:05.539Z,0.80
2023-03-10T10:20:54.337Z,2.27
2023-03-10T10:23:25.549Z,1.27
2023-03-10T10:25:53.861Z,1.00
2023-03-10T10:28:45.122Z,1.00
2023-03-10T10:31:20.259Z,2.90
2023-03-10T10:34:00.779Z,0.90
2023-03-10T10:36:35.461Z,1.50
2023-03-10T10:39:06.242Z,4.07
2023-03-10T10:41:34.990Z,3.20
2023-03-10T10:44:14.434Z,3.93
2023-03-10T10:46:55.149Z,3.67
2023-03-10T10:49:31.896Z,1.33
2023-03-10T10:52:02.000Z,2.90
2023-03-10T10:55:00.513Z,3.10
2023-03-10T10:57:36.253Z,1.70
2023-03-10T11:00:25.707Z,3.13
2023-03-10T11:02:54.652Z,0.80
2023-03-10T11:05:25.349Z,1.20
2023-03-10T11:07:53.372Z,0.80
2023-03-10T11:10:27.434Z,1.17
2023-03-10T11:13:05.713Z,0.90
2023-03-10T11:15:33.535Z,3.60
2023-03-10T11:18:16.553Z,2.50
2023-03-10T11:20:52.627Z,2.10
2023-03-10T11:23:50.456Z,1.57
2023-03-10T11:26:31.636Z,1.03
2023-03-10T11:29:17.714Z,2.87
2023-03-10T11:32:23.276Z,1.30
2023-03-10T11:34:54.529Z,0.93
2023-03-10T11:37:31.550Z,1.10
2023-03-10T11:40:25.150Z,2.27
2023-03-10T11:43:17.294Z,1.00
2023-03-10T11:45:54.786Z,1.37
2023-03-10T11:48:44.178Z,0.97
2023-03-10T11:51:19.446Z,3.37
2023-03-10T11:53:55.111Z,0.80
2023-03-10T11:56:24.479Z,0.90
2023-03-10T11:59:01.340Z,0.80
2023-03-10T12:01:54.501Z,1.60
2023-03-10T12:04:33.682Z,1.77
2023-03-10T12:07:12.657Z,2.20
2023-03-10T12:09:50.695Z,3.23
2023-03-10T12:12:26.298Z,0.90
2023-03-10T12:14:54.584Z,0.80
2023-03-10T12:17:22.374Z,1.47
2023-03-10T12:20:14.923Z,0.80
2023-03-10T12:22:44.373Z,3.13
2023-03-10T12:25:35.614Z,4.00
2023-03-10T12:28:18.393Z,4.03
2023-03-10T12:31:03.739Z,1.00
2023-03-10T12:33:31.285Z,2.60
2023-03-10T12:36:17.040Z,1.57
2023-03-10T12:38:59.950Z,1.87
2023-03-10T12:41:27.267Z,1.57
2023-03-10T12:43:57.622Z,0.87
2023-03-10T12:46:43.371Z,1.03
2023-03-10T12:49:46.272Z,3.40
2023-03-10T12:52:37.102Z,2.23
2023-03-10T12:55:23.025Z,3.83
2023-03-10T12:57:56.422Z,0.90
2023-03-10T13:00:47.942Z,0.80
2023-03-10T13:03:25.242Z,1.60
2023-03-10T13:06:13.530Z,0.90
2023-03-10T13:08:40.680Z,3.63
2023-03-10T13:11:32.504Z,3.53
2023-03-10T13:14:18.752Z,2.57
2023-03-10T13:17:00.460Z,1.20
2023-03-10T13:19:33.584Z,1.50
2023-03-10T13:22:01.579Z,3.37
2023-03-10T13:24:38.746Z,1.57
2023-03-10T13:27:19.922Z,4.03
2023-03-10T13:30:02.655Z,1.00
2023-03-10T13:32:31.131Z,4.00
2023-03-10T13:34:59.140Z,1.60
2023-03-10T13:37:26.656Z,1.40
2023-03-10T13:40:07.891Z,0.90
2023-03-10T13:42:43.945Z,4.23
2023-03-10T13:45:22.889Z,3.93
2023-03-10T13:47:52.056Z,1.00
2023-03-10T13:50:19.612Z,0.97
2023-03-10T13:52:59.887Z,1.20
2023-03-10T13:55:41.804Z,2.20
2023-03-10T13:58:11.655Z,4.03
2023-03-10T14:00:39.058Z,3.67
2023-03-10T14:03:08.456Z,5.33
2023-03-10T14:05:41.676Z,4.60
2023-03-10T14:08:19.899Z,3.90
2023-03-10T14:10:47.477Z,0.83
2023-03-10T14:13:42.255Z,2.60
2023-03-10T14:16:10.380Z,3.70
2023-03-10T14:18:38.878Z,4.20
2023-03-10T14:21:52.387Z,4.77
2023-03-10T14:24:28.242Z,0.80
2023-03-10T14:26:59.354Z,0.87
2023-03-10T14:29:27.711Z,1.67
2023-03-10T14:31:55.308Z,0.90
2023-03-10T14:34:22.689Z,1.07
2023-03-10T14:36:50.289Z,0.97
2023-03-10T14:39:18.275Z,1.27
2023-03-10T14:41:47.952Z,2.80
2023-03-10T14:44:15.197Z,2.87
2023-03-10T14:46:42.596Z,4.30
2023-03-10T14:49:15.110Z,4.57
2023-03-10T14:51:42.320Z,4.50
2023-03-10T14:54:24.729Z,4.20
2023-03-10T14:56:59.196Z,0.93
2023-03-10T14:59:28.536Z,2.00
2023-03-10T15:01:57.327Z,1.23
2023-03-10T15:04:25.136Z,1.07
2023-03-10T15:06:53.315Z,1.10
2023-03-10T15:09:22.809Z,1.10
2023-03-10T15:11:50.220Z,1.00
2023-03-10T15:14:19.544Z,1.53
2023-03-10T15:16:47.024Z,2.60
2023-03-10T15:19:24.750Z,5.07
2023-03-10T15:21:52.047Z,1.00
2023-03-10T15:24:19.781Z,1.00
2023-03-10T15:26:48.465Z,2.30
2023-03-10T15:29:17.134Z,3.47
2023-03-10T15:31:44.779Z,3.83
2023-03-10T15:34:12.116Z,4.10
2023-03-10T15:36:39.651Z,4.83
2023-03-10T15:39:07.290Z,3.67
2023-03-10T15:41:36.049Z,3.40
2023-03-10T15:44:03.602Z,3.90
2023-03-10T15:46:30.965Z,1.70
2023-03-10T15:49:00.334Z,0.90
2023-03-10T15:51:27.932Z,1.03
2023-03-10T15:53:55.563Z,1.10
2023-03-10T15:56:22.886Z,1.10
2023-03-10T15:58:50.458Z,1.33
2023-03-10T16:01:21.168Z,2.93
2023-03-10T16:03:49.192Z,2.53
2023-03-10T16:06:16.737Z,4.30
2023-03-10T16:08:44.373Z,4.10
2023-03-10T16:11:18.213Z,5.03
2023-03-10T16:13:47.152Z,4.00
2023-03-10T16:16:14.592Z,3.83
2023-03-10T16:18:41.826Z,4.83
2023-03-10T16:21:09.274Z,3.00
2023-03-10T16:23:37.696Z,3.30
2023-03-10T16:26:19.725Z,1.40
2023-03-10T16:28:50.642Z,3.93
2023-03-10T16:31:19.966Z,3.93
2023-03-10T16:33:49.839Z,5.80
2023-03-10T16:36:25.705Z,3.97
2023-03-10T16:38:56.571Z,2.50
2023-03-10T16:41:24.828Z,2.07
2023-03-10T16:43:52.738Z,3.37
2023-03-10T16:46:30.232Z,3.93
2023-03-10T16:48:58.740Z,0.97
2023-03-10T16:51:38.433Z,0.90
2023-03-10T16:54:10.177Z,1.37
2023-03-10T16:56:39.677Z,1.70
2023-03-10T16:59:07.396Z,2.13
2023-03-10T17:01:34.965Z,1.77
2023-03-10T17:04:02.445Z,0.93
2023-03-10T17:06:32.555Z,0.83
2023-03-10T17:09:00.965Z,1.00
2023-03-10T17:11:34.812Z,1.00
2023-03-10T17:14:05.017Z,1.00
2023-03-10T17:16:33.448Z,1.73
2023-03-10T17:19:03.802Z,1.00
2023-03-10T17:21:36.144Z,0.90
2023-03-10T17:24:04.178Z,0.90
2023-03-10T17:26:32.332Z,0.83
2023-03-10T17:28:59.759Z,1.00
2023-03-10T17:31:28.734Z,2.63
2023-03-10T17:33:58.817Z,3.23
2023-03-10T17:36:26.830Z,3.70
2023-03-10T17:38:59.645Z,4.20
2023-03-10T17:41:27.967Z,3.38
2023-03-10T17:43:56.184Z,4.20
2023-03-10T17:46:29.861Z,4.33
2023-03-10T17:48:58.023Z,4.20
2023-03-10T17:51:30.548Z,5.68
2023-03-10T17:54:01.141Z,3.83
2023-03-10T17:56:28.947Z,3.93
2023-03-10T17:58:57.159Z,4.43
2023-03-10T18:01:27.867Z,4.03
2023-03-10T18:03:56.783Z,4.20
2023-03-10T18:06:27.190Z,4.40
2023-03-10T18:08:56.438Z,4.63
2023-03-10T18:11:24.889Z,5.35
2023-03-10T18:13:53.936Z,3.90
2023-03-10T18:16:29.376Z,5.40
2023-03-10T18:18:57.522Z,4.40
2023-03-10T18:21:25.747Z,5.82
2023-03-10T18:23:53.366Z,4.70
2023-03-10T18:26:24.341Z,3.00
2023-03-10T18:28:51.871Z,3.58
2023-03-10T18:31:25.374Z,2.53
2023-03-10T18:33:52.706Z,4.72
2023-03-10T18:36:21.137Z,2.75
2023-03-10T18:38:49.062Z,2.22
2023-03-10T18:41:19.453Z,1.27
2023-03-10T18:43:47.326Z,1.50
2023-03-10T18:46:14.785Z,1.00
2023-03-10T18:48:42.623Z,1.27
2023-03-10T18:51:11.265Z,1.00
2023-03-10T18:53:39.692Z,1.20
2023-03-10T18:56:08.209Z,2.58
2023-03-10T18:58:35.557Z,4.03
2023-03-10T19:01:02.845Z,5.03
2023-03-10T19:03:31.521Z,4.90
2023-03-10T19:05:59.095Z,4.30
2023-03-10T19:08:29.234Z,4.40
2023-03-10T19:10:57.758Z,3.28
2023-03-10T19:13:26.485Z,4.80
2023-03-10T19:18:55.893Z,2.20
2023-03-10T19:21:23.668Z,2.08
2023-03-10T19:23:52.900Z,1.45
2023-03-10T19:26:21.187Z,0.80
2023-03-10T19:28:49.037Z,1.60
2023-03-10T19:31:17.002Z,0.82
2023-03-10T19:33:44.683Z,1.48
2023-03-10T19:36:13.925Z,2.67
2023-03-10T19:38:43.095Z,5.50
2023-03-10T19:41:16.354Z,4.40
2023-03-10T19:43:45.303Z,2.05
2023-03-10T19:46:17.330Z,2.78
2023-03-10T19:48:45.420Z,1.63
2023-03-10T19:51:27.483Z,3.38
2023-03-10T19:53:56.932Z,0.85
2023-03-10T19:56:28.192Z,1.10
2023-03-10T19:58:56.179Z,1.17
2023-03-10T20:01:26.670Z,1.00
2023-03-10T20:03:57.202Z,1.10
2023-03-10T20:06:26.390Z,0.98
2023-03-10T20:08:54.869Z,1.30
2023-03-10T20:11:22.754Z,0.85
2023-03-10T20:13:53.864Z,1.13
2023-03-10T20:16:24.451Z,1.00
2023-03-10T20:18:52.464Z,1.13
2023-03-10T20:21:20.124Z,1.00
2023-03-10T20:23:48.949Z,2.55
2023-03-10T20:26:17.194Z,3.80
2023-03-10T20:28:45.498Z,6.38
2023-03-10T20:31:23.847Z,4.88
2023-03-10T20:33:51.648Z,1.60
2023-03-10T20:36:19.611Z,2.60
2023-03-10T20:38:48.243Z,5.40
2023-03-10T20:41:20.509Z,4.63
2023-03-10T20:43:48.551Z,5.50
2023-03-10T20:46:19.662Z,5.20
2023-03-10T20:48:50.227Z,5.47
2023-03-10T20:51:19.395Z,5.05
2023-03-10T20:53:47.992Z,5.45
2023-03-10T20:56:25.787Z,5.68
2023-03-10T20:59:04.122Z,2.55
2023-03-10T21:01:31.718Z,0.90
2023-03-10T21:03:59.283Z,0.98
2023-03-10T21:06:27.366Z,1.17
2023-03-10T21:08:54.776Z,2.45
2023-03-10T21:11:24.817Z,4.13
2023-03-10T21:13:55.907Z,5.03
2023-03-10T21:16:30.754Z,4.20
2023-03-10T21:18:58.507Z,1.20
2023-03-10T21:21:25.875Z,2.30
2023-03-10T21:23:53.237Z,5.10
2023-03-10T21:26:21.724Z,5.05
2023-03-10T21:28:49.393Z,5.53
2023-03-10T21:31:17.116Z,5.25
2023-03-10T21:33:45.032Z,3.80
2023-03-10T21:36:20.854Z,4.50
2023-03-10T21:38:50.339Z,6.28
2023-03-10T21:41:24.253Z,5.22
2023-03-10T21:43:53.589Z,5.72
2023-03-10T21:46:21.752Z,5.63
2023-03-10T21:48:49.436Z,5.78
2023-03-10T21:51:34.526Z,3.28
2023-03-10T21:54:03.410Z,1.50
2023-03-10T21:56:41.402Z,2.40
2023-03-10T21:59:18.207Z,1.20
2023-03-10T22:01:45.906Z,3.22
2023-03-10T22:04:14.389Z,1.95
2023-03-10T22:06:46.151Z,1.00
2023-03-10T22:09:14.442Z,1.00
2023-03-10T22:11:42.158Z,0.90
2023-03-10T22:14:10.521Z,1.08
2023-03-10T22:16:38.094Z,0.90
2023-03-10T22:19:17.337Z,1.40
2023-03-10T22:21:45.003Z,1.08
2023-03-10T22:24:13.991Z,1.08
2023-03-10T22:26:42.797Z,1.20
2023-03-10T22:29:10.321Z,1.25
2023-03-10T22:31:37.906Z,1.65
2023-03-10T22:34:07.216Z,3.75
2023-03-10T22:36:35.813Z,5.00
2023-03-10T22:39:03.706Z,4.93
2023-03-10T22:41:31.973Z,4.90
2023-03-10T22:43:59.563Z,6.38
2023-03-10T22:46:29.139Z,6.20
2023-03-10T22:48:57.016Z,5.32
2023-03-10T22:51:24.515Z,4.47
2023-03-10T22:53:52.074Z,2.95
2023-03-10T22:56:19.597Z,1.00
2023-03-10T22:58:47.166Z,0.90
2023-03-10T23:01:15.050Z,0.90
2023-03-10T23:03:42.688Z,1.27
2023-03-10T23:06:11.051Z,3.95
2023-03-10T23:08:38.544Z,5.53
2023-03-10T23:11:14.004Z,5.13
2023-03-10T23:13:42.165Z,3.53
2023-03-10T23:16:09.792Z,5.18
2023-03-10T23:18:37.292Z,5.38
2023-03-10T23:21:05.447Z,7.65
2023-03-10T23:23:32.831Z,5.13
2023-03-10T23:26:00.310Z,4.15
2023-03-10T23:28:28.199Z,2.45
2023-03-10T23:30:55.917Z,1.45
2023-03-10T23:33:24.583Z,1.17
2023-03-10T23:35:54.597Z,0.98
2023-03-10T23:38:24.551Z,1.10
2023-03-10T23:40:52.989Z,0.80
2023-03-10T23:43:20.475Z,1.52
2023-03-10T23:45:47.851Z,2.13
2023-03-10T23:48:18.300Z,4.70
2023-03-10T23:50:47.443Z,4.47
2023-03-10T23:53:17.447Z,5.22
2023-03-10T23:55:46.439Z,4.75
2023-03-10T23:58:15.674Z,5.00
